Time;durP1;ratioP1;P1;durP2;ratioP2;P2;SDS_P1;SDS_P2;PMS_P1;PMS_P2;Temp;Humidity;BMP_temperature;BMP_pressure;BME280_temperature;BME280_humidity;BME280_pressure;Samples;Min_cycle;Max_cycle;Signal;HPM_P1;HPM_P2
2022/12/26 00:00:23;;;;;;;;;;;;;;;7.54;92.52;100519.13;4172938;28;20007;-61
2022/12/26 00:02:25;;;;;;;;;;;;;;;7.55;92.41;100506.53;4173843;28;20035;-58
2022/12/26 00:04:29;;;;;;;;;;;;;;;7.60;92.38;100506.03;4172531;28;20490;-59
2022/12/26 00:06:31;;;;;;;;;;;;;;;7.61;92.06;100508.56;4173270;28;20019;-58
2022/12/26 00:08:33;;;;;;;;;;;;;;;7.65;92.57;100509.94;4172937;28;20443;-58
2022/12/26 00:10:35;;;;;;;;;;;;;;;7.72;92.97;100505.56;4172386;28;20019;-57
2022/12/26 00:12:37;;;;;;;;;;;;;;;7.75;93.04;100510.63;4173551;28;20031;-59
2022/12/26 00:14:39;;;;;;;;;;;;;;;7.75;92.41;100507.09;4172425;28;20015;-59
2022/12/26 00:16:42;;;;;;;;;;;;;;;7.74;92.50;100497.34;4173794;28;20015;-58
2022/12/26 00:18:44;;;;;;;;;;;;;;;7.75;91.86;100501.72;4173660;28;20023;-60
2022/12/26 00:20:47;;;;;;;;;;;;;;;7.81;92.25;100495.69;4173067;28;20012;-58
2022/12/26 00:22:49;;;;;;;;;;;;;;;7.83;92.71;100493.66;4173259;28;19963;-59
2022/12/26 00:24:51;;;;;;;;;;;;;;;7.86;92.48;100495.19;4172484;28;20046;-57
2022/12/26 00:26:53;;;;;;;;;;;;;;;7.89;92.75;100482.25;4173100;28;20473;-60
2022/12/26 00:28:56;;;;;;;;;;;;;;;7.90;92.50;100480.44;4174072;28;20015;-59
2022/12/26 00:30:57;;;;;;;;;;;;;;;7.90;92.31;100477.75;4172952;28;20477;-57
2022/12/26 00:32:59;;;;;;;;;;;;;;;7.89;92.64;100482.25;4173366;28;20023;-60
2022/12/26 00:35:01;;;;;;;;;;;;;;;7.92;92.65;100483.78;4171882;28;20031;-61
2022/12/26 00:37:05;;;;;;;;;;;;;;;7.94;92.24;100501.41;4173490;28;20021;-61
2022/12/26 00:39:07;;;;;;;;;;;;;;;8.00;92.67;100497.22;4172927;28;20027;-59
2022/12/26 00:41:09;;;;;;;;;;;;;;;7.98;92.51;100496.56;4171673;28;19996;-60
2022/12/26 00:43:11;;;;;;;;;;;;;;;8.01;92.52;100487.31;4172812;28;20430;-57
2022/12/26 00:45:13;;;;;;;;;;;;;;;7.99;92.22;100484.78;4172201;28;20056;-58
2022/12/26 00:47:15;;;;;;;;;;;;;;;8.00;92.10;100480.25;4173073;28;20016;-60
2022/12/26 00:49:17;;;;;;;;;;;;;;;8.03;92.36;100471.88;4172433;28;20020;-58
2022/12/26 00:51:19;;;;;;;;;;;;;;;8.00;91.93;100473.03;4172105;28;20454;-59
2022/12/26 00:53:22;;;;;;;;;;;;;;;8.04;92.78;100473.53;4173100;28;20011;-60
2022/12/26 00:55:24;;;;;;;;;;;;;;;8.04;92.42;100477.06;4171661;28;20012;-59
2022/12/26 00:57:26;;;;;;;;;;;;;;;8.05;92.04;100475.22;4172498;28;20031;-57
2022/12/26 00:59:28;;;;;;;;;;;;;;;8.07;92.02;100473.19;4171992;28;20036;-58
2022/12/26 01:01:30;;;;;;;;;;;;;;;8.10;92.62;100470.16;4171997;28;20007;-60
2022/12/26 01:03:32;;;;;;;;;;;;;;;8.08;92.40;100458.75;4173274;28;20418;-58
2022/12/26 01:05:34;;;;;;;;;;;;;;;8.05;92.00;100459.06;4171870;28;20011;-59
2022/12/26 01:07:36;;;;;;;;;;;;;;;8.10;92.49;100467.47;4172406;28;20447;-58
2022/12/26 01:09:39;;;;;;;;;;;;;;;8.12;92.39;100468.19;4171291;28;20015;-59
2022/12/26 01:11:41;;;;;;;;;;;;;;;8.09;92.22;100466.66;4173381;28;20022;-59
2022/12/26 01:13:43;;;;;;;;;;;;;;;8.11;92.35;100448.47;4172652;28;20035;-58
2022/12/26 01:15:46;;;;;;;;;;;;;;;8.11;92.45;100443.09;4171874;28;20355;-59
2022/12/26 01:17:48;;;;;;;;;;;;;;;8.10;92.41;100449.50;4172721;28;20027;-59
2022/12/26 01:19:50;;;;;;;;;;;;;;;8.08;92.08;100439.91;4171412;28;20430;-59
2022/12/26 01:21:52;;;;;;;;;;;;;;;8.11;92.30;100455.72;4172829;28;20013;-60
2022/12/26 01:23:54;;;;;;;;;;;;;;;8.12;92.30;100454.72;4172675;28;19968;-61
2022/12/26 01:25:58;;;;;;;;;;;;;;;8.16;93.05;100442.59;4171805;28;20006;-60
2022/12/26 01:28:00;;;;;;;;;;;;;;;8.16;92.95;100447.16;4172391;28;20011;-58
2022/12/26 01:30:02;;;;;;;;;;;;;;;8.15;92.62;100448.16;4171829;28;20045;-58
2022/12/26 01:32:04;;;;;;;;;;;;;;;8.12;92.02;100458.25;4172503;28;20007;-58
2022/12/26 01:34:08;;;;;;;;;;;;;;;8.16;92.25;100456.03;4172948;28;20350;-57
2022/12/26 01:36:10;;;;;;;;;;;;;;;8.18;92.51;100450.50;4171759;28;20004;-57
2022/12/26 01:38:11;;;;;;;;;;;;;;;8.22;92.19;100451.84;4172744;28;20011;-58
2022/12/26 01:40:13;;;;;;;;;;;;;;;8.20;92.40;100448.50;4171412;28;20451;-60
2022/12/26 01:42:18;;;;;;;;;;;;;;;8.20;92.22;100438.56;4171801;28;20009;-58
2022/12/26 01:44:38;;;;;;;;;;;;;;;8.22;92.29;100439.22;4171287;28;19925;-58
2022/12/26 01:46:42;;;;;;;;;;;;;;;8.28;92.31;100433.19;4171650;28;20047;-60
2022/12/26 01:48:44;;;;;;;;;;;;;;;8.33;92.46;100439.91;4170317;28;20008;-59
2022/12/26 01:50:47;;;;;;;;;;;;;;;8.36;92.46;100432.34;4171044;28;19999;-59
2022/12/26 01:52:48;;;;;;;;;;;;;;;8.31;92.61;100437.38;4172092;28;20008;-58
2022/12/26 01:54:50;;;;;;;;;;;;;;;8.34;92.82;100442.44;4170995;28;20295;-61
2022/12/26 01:56:52;;;;;;;;;;;;;;;8.33;92.71;100439.91;4171202;28;20004;-58
2022/12/26 01:58:57;;;;;;;;;;;;;;;8.31;92.42;100432.00;4171635;28;20012;-60
2022/12/26 02:00:59;;;;;;;;;;;;;;;8.32;92.57;100430.16;4169916;28;20012;-58
2022/12/26 02:07:43;;;;;;;;;;;;;;;8.35;92.33;100435.19;4168875;28;20020;-60
2022/12/26 02:09:45;;;;;;;;;;;;;;;8.39;92.81;100433.84;4170737;28;20012;-59
2022/12/26 02:11:48;;;;;;;;;;;;;;;8.42;93.21;100426.28;4171648;28;20040;-60
2022/12/26 02:13:50;;;;;;;;;;;;;;;8.44;93.07;100431.50;4171663;28;20012;-59
2022/12/26 02:15:53;;;;;;;;;;;;;;;8.43;92.83;100427.09;4170464;28;20426;-58
2022/12/26 02:17:56;;;;;;;;;;;;;;;8.45;92.72;100428.66;4171801;28;20011;-59
2022/12/26 02:20:02;;;;;;;;;;;;;;;8.48;93.09;100427.47;4170071;28;20023;-60
2022/12/26 02:22:13;;;;;;;;;;;;;;;8.47;92.71;100439.25;4170889;28;20048;-59
2022/12/26 02:24:24;;;;;;;;;;;;;;;8.50;93.18;100427.31;4170876;28;20008;-55
2022/12/26 02:26:45;;;;;;;;;;;;;;;8.48;92.78;100422.94;4171221;28;19947;-60
2022/12/26 02:28:55;;;;;;;;;;;;;;;8.48;92.35;100419.41;4171418;28;20011;-61
2022/12/26 02:30:58;;;;;;;;;;;;;;;8.49;92.68;100418.38;4170846;28;20028;-61
2022/12/26 02:33:13;;;;;;;;;;;;;;;8.52;92.57;100434.19;4171450;28;20016;-60
2022/12/26 02:35:15;;;;;;;;;;;;;;;8.51;92.38;100423.59;4170324;28;20020;-60
2022/12/26 02:37:21;;;;;;;;;;;;;;;8.49;92.24;100426.44;4170647;28;20027;-59
2022/12/26 02:39:27;;;;;;;;;;;;;;;8.54;92.94;100442.94;4170711;28;20019;-60
2022/12/26 02:41:31;;;;;;;;;;;;;;;8.58;93.17;100411.13;4170562;28;20047;-59
2022/12/26 02:43:35;;;;;;;;;;;;;;;8.54;92.58;100426.81;4170841;28;20015;-59
2022/12/26 02:47:59;;;;;;;;;;;;;;;8.52;92.42;100409.97;4171117;28;19921;-61
2022/12/26 03:13:27;;;;;;;;;;;;;;;8.56;92.37;100422.06;4170061;28;20007;-58
2022/12/26 03:17:18;;;;;;;;;;;;;;;8.58;92.44;100420.03;4169659;28;20012;-57
2022/12/26 03:17:52;;;;;;;;;;;;;;;8.55;92.14;100433.00;4170885;28;20019;-58
2022/12/26 03:19:59;;;;;;;;;;;;;;;8.56;92.37;100438.22;4169989;28;20019;-59
2022/12/26 03:22:29;;;;;;;;;;;;;;;8.56;92.46;100435.53;4171199;28;20024;-59
2022/12/26 03:24:23;;;;;;;;;;;;;;;8.59;92.72;100435.19;4185248;28;20028;-57
2022/12/26 03:26:40;;;;;;;;;;;;;;;8.56;92.62;100422.06;4170014;28;20003;-60
2022/12/26 03:28:41;;;;;;;;;;;;;;;8.57;92.55;100429.13;4171304;28;20359;-59
2022/12/26 03:30:49;;;;;;;;;;;;;;;8.56;92.24;100432.84;4168572;28;19925;-58
2022/12/26 03:32:50;;;;;;;;;;;;;;;8.59;92.68;100439.72;4170516;28;20059;-59
2022/12/26 03:34:51;;;;;;;;;;;;;;;8.57;92.46;100445.28;4169471;28;19925;-57
2022/12/26 03:37:11;;;;;;;;;;;;;;;8.59;92.66;100431.63;4170499;28;20007;-58
2022/12/26 03:39:17;;;;;;;;;;;;;;;8.58;92.77;100424.59;4162466;28;20063;-58
2022/12/26 04:44:45;;;;;;;;;;;;;;;8.74;93.17;100454.16;4172602;28;20012;-59
2022/12/26 04:46:47;;;;;;;;;;;;;;;8.69;92.72;100458.41;4172900;28;20015;-60
2022/12/26 04:51:09;;;;;;;;;;;;;;;8.70;92.58;100460.91;4172249;28;20496;-59
2022/12/26 04:53:11;;;;;;;;;;;;;;;8.71;92.78;100459.06;4173412;28;20498;-60
2022/12/26 04:55:13;;;;;;;;;;;;;;;8.69;92.64;100461.91;4187169;28;20003;-59
2022/12/26 04:57:15;;;;;;;;;;;;;;;8.70;92.87;100457.38;4173532;28;20430;-58
2022/12/26 04:59:17;;;;;;;;;;;;;;;8.69;92.62;100459.22;4172350;28;20027;-58
2022/12/26 05:10:41;;;;;;;;;;;;;;;8.71;93.13;100465.28;4171612;28;20015;-59
2022/12/26 05:12:43;;;;;;;;;;;;;;;8.73;93.14;100463.28;4172208;28;20007;-60
2022/12/26 05:14:45;;;;;;;33.05;21.40;;;;;;;8.73;93.29;100474.03;4169353;28;25084;-59
2022/12/26 05:28:42;;;;;;;35.13;21.85;;;;;;;8.71;93.53;100488.66;4171982;28;20377;-58
2022/12/26 05:30:45;;;;;;;35.30;21.65;;;;;;;8.69;93.35;100485.31;4171066;28;20339;-60
2022/12/26 05:35:08;;;;;;;;;;;;;;;8.71;93.71;100491.38;4171704;28;20246;-59
2022/12/26 05:37:10;;;;;;;30.13;19.80;;;;;;;8.71;93.42;100489.50;4171170;28;24552;-60
2022/12/26 05:39:13;;;;;;;27.80;20.48;;;;;;;8.72;93.89;100485.81;4171182;28;20769;-58
2022/12/26 05:41:15;;;;;;;;;;;;;;;8.72;93.50;100480.41;4171997;28;20315;-60
2022/12/26 05:43:18;;;;;;;42.15;23.65;;;;;;;8.75;93.60;100484.63;4171044;28;24545;-57
2022/12/26 05:45:20;;;;;;;30.75;20.77;;;;;;;8.78;93.77;100484.28;4170547;28;20328;-60
2022/12/26 05:47:23;;;;;;;;;;;;;;;8.80;93.54;100490.34;4172255;28;20306;-59
2022/12/26 05:49:26;;;;;;;38.83;22.52;;;;;;;8.77;93.48;100488.00;4169790;28;24521;-58
2022/12/26 05:51:28;;;;;;;29.50;24.50;;;;;;;8.77;92.99;100488.00;4172362;28;20330;-57
2022/12/26 05:53:31;;;;;;;;;;;;;;;8.80;93.17;100488.47;4170998;28;20308;-59
2022/12/26 05:55:33;;;;;;;36.45;21.77;;;;;;;8.79;93.29;100497.59;4169171;28;25101;-58
2022/12/26 05:57:35;;;;;;;;;;;;;;;8.83;93.27;100492.69;4172030;28;20318;-58
2022/12/26 05:59:38;;;;;;;36.15;21.58;;;;;;;8.83;92.82;100498.06;4170115;28;24529;-58
2022/12/26 06:01:40;;;;;;;;;;;;;;;8.83;92.68;100493.53;4172186;28;20551;-58
2022/12/26 06:03:43;;;;;;;36.80;21.80;;;;;;;8.83;93.05;100493.53;4170085;28;24535;-57
2022/12/26 06:05:47;;;;;;;;;;;;;;;8.89;92.99;100488.47;4170656;28;21010;-56
2022/12/26 06:07:49;;;;;;;37.10;22.10;;;;;;;8.86;93.04;100489.66;4169775;28;24524;-59
2022/12/26 06:09:51;;;;;;;;;;;;;;;8.89;92.86;100494.69;4170908;28;20321;-59
2022/12/26 06:11:53;;;;;;;37.05;21.95;;;;;;;8.84;92.44;100500.59;4169211;28;25014;-58
2022/12/26 06:13:55;;;;;;;;;;;;;;;8.85;92.01;100496.03;4171033;28;21072;-57
2022/12/26 06:15:58;;;;;;;32.20;20.43;;;;;;;8.88;92.60;100503.78;4168219;28;24570;-59
2022/12/26 06:18:00;;;;;;;;;;;;;;;8.90;92.50;100496.34;4172373;28;21059;-56
2022/12/26 06:20:02;;;;;;;33.97;21.10;;;;;;;8.92;92.48;100493.50;4169810;28;24542;-59
2022/12/26 06:22:06;;;;;;;;;;;;;;;8.93;92.88;100487.94;4172262;28;20310;-58
2022/12/26 06:24:08;;;;;;;;;;;;;;;8.95;92.84;100490.47;4172108;28;20004;-59
2022/12/26 06:26:11;;;;;;;29.55;20.85;;;;;;;8.97;93.08;100491.97;4169803;28;19996;-60
2022/12/26 06:28:13;;;;;;;;;;;;;;;8.98;93.06;100490.09;4170803;28;20282;-56
2022/12/26 06:30:15;;;;;;;;;;;;;;;8.97;92.94;100486.59;4170221;28;20015;-58
2022/12/26 06:32:17;;;;;;;31.27;20.33;;;;;;;8.97;92.65;100486.59;4169599;28;25050;-56
2022/12/26 06:34:19;;;;;;;;;;;;;;;8.98;92.36;100495.50;4170741;28;20710;-58
2022/12/26 06:36:22;;;;;;;;;;;;;;;8.97;92.26;100504.63;4171423;28;20466;-59
2022/12/26 06:38:25;;;;;;;;;;;;;;;8.96;92.45;100517.22;4171835;28;20021;-58
2022/12/26 06:40:27;;;;;;;;;;;;;;;8.97;92.49;100518.09;4170694;28;20365;-57
2022/12/26 06:42:30;;;;;;;;;;;;;;;8.99;92.72;100526.81;4170592;28;20028;-60
2022/12/26 06:44:31;;;;;;;;;;;;;;;9.00;92.50;100531.22;4169420;28;20047;-57
2022/12/26 06:46:34;;;;;;;32.58;20.92;;;;;;;9.01;92.21;100524.78;4169414;28;25171;-56
2022/12/26 06:48:38;;;;;;;;;;;;;;;8.99;92.46;100535.72;4171028;28;20311;-58
2022/12/26 06:50:40;;;;;;;;;;;;;;;9.02;92.34;100537.25;4170774;28;20012;-58
2022/12/26 06:52:42;;;;;;;;;;;;;;;9.02;92.28;100538.09;4171243;28;19925;-57
2022/12/26 06:54:45;;;;;;;;;;;;;;;9.04;92.98;100534.38;4170327;28;20011;-58
2022/12/26 06:56:47;;;;;;;32.05;20.70;;;;;;;9.06;92.44;100548.53;4168923;28;24567;-59
2022/12/26 06:58:52;;;;;;;;;;;;;;;9.05;92.53;100545.00;4171038;28;20709;-60
2022/12/26 07:00:54;;;;;;;29.83;19.75;;;;;;;9.05;92.16;100550.38;4168134;28;24543;-58
2022/12/26 07:02:56;;;;;;;;;;;;;;;9.08;92.70;100550.03;4170117;28;21134;-57
2022/12/26 07:04:58;;;;;;;36.15;21.85;;;;;;;9.07;92.19;100563.69;4167044;28;24548;-56
2022/12/26 07:07:00;;;;;;;;;;;;;;;9.03;91.97;100565.88;4169074;28;20287;-58
2022/12/26 07:09:04;;;;;;;31.75;20.77;;;;;;;9.05;92.26;100574.63;4176371;28;26112;-56
2022/12/26 07:11:13;;;;;;;;;;;;;;;9.02;92.33;100572.28;4169662;28;20350;-57
2022/12/26 07:13:15;;;;;;;;;;;;;;;9.06;92.23;100570.06;4168789;28;20032;-56
2022/12/26 07:15:17;;;;;;;;;;;;;;;9.06;92.20;100557.47;4167979;28;20023;-57
2022/12/26 07:17:19;;;;;;;;;;;;;;;9.09;92.64;100557.13;4168718;28;20043;-60
2022/12/26 07:19:21;;;;;;;;;;;;;;;9.13;92.87;100568.38;4169560;28;20039;-59
2022/12/26 07:21:24;;;;;;;;;;;;;;;9.14;92.62;100564.69;4170076;28;20031;-59
2022/12/26 07:23:26;;;;;;;27.25;19.02;;;;;;;9.13;92.58;100571.91;4170123;28;24527;-58
2022/12/26 07:25:28;;;;;;;;;;;;;;;9.15;92.33;100560.97;4166734;28;20648;-58
2022/12/26 07:27:31;;;;;;;;;;;;;;;9.12;92.30;100551.38;4168925;28;20024;-56
2022/12/26 07:29:34;;;;;;;26.05;18.58;;;;;;;9.12;91.88;100564.00;4165489;28;24528;-59
2022/12/26 07:31:36;;;;;;;;;;;;;;;9.14;92.35;100565.53;4168425;28;20301;-58
2022/12/26 07:33:38;;;;;;;;;;;;;;;9.15;92.31;100560.97;4168732;28;20023;-56
2022/12/26 07:35:40;;;;;;;;;;;;;;;9.15;92.25;100561.81;4168711;28;20013;-56
2022/12/26 07:37:42;;;;;;;;;;;;;;;9.14;92.28;100568.22;4168509;28;20020;-58
2022/12/26 07:39:45;;;;;;;27.70;19.13;;;;;;;9.16;91.68;100562.66;4166830;28;25333;-59
2022/12/26 07:41:58;;;;;;;;;;;;;;;9.15;92.28;100566.34;4169612;28;20294;-59
2022/12/26 07:44:01;;;;;;;;;;;;;;;9.15;92.19;100555.56;4169433;28;20016;-56
2022/12/26 07:46:04;;;;;;;;;;;;;;;9.16;92.01;100562.66;4167959;28;20016;-60
2022/12/26 07:48:06;;;;;;;;;;;;;;;9.17;92.07;100559.78;4169517;28;20024;-60
2022/12/26 07:50:09;;;;;;;;;;;;;;;9.15;92.15;100561.81;4184444;28;20591;-58
2022/12/26 07:52:11;;;;;;;;;;;;;;;9.14;92.13;100572.78;4168447;28;20012;-59
2022/12/26 07:54:12;;;;;;;;;;;;;;;9.14;91.91;100573.59;4167848;28;20467;-58
2022/12/26 07:56:15;;;;;;;;;;;;;;;9.18;92.33;100576.78;4168157;28;20060;-58
2022/12/26 07:58:17;;;;;;;;;;;;;;;9.18;92.06;100568.69;4168964;28;20015;-59
2022/12/26 08:00:20;;;;;;;;;;;;;;;9.21;92.18;100584.53;4168602;28;20037;-58
2022/12/26 08:02:22;;;;;;;28.00;19.77;;;;;;;9.20;91.68;100601.72;4168872;28;20370;-56
2022/12/26 08:04:24;;;;;;;;;;;;;;;9.22;92.15;100598.84;4169276;28;20292;-56
2022/12/26 08:06:26;;;;;;;;;;;;;;;9.20;92.14;100596.34;4167059;28;20111;-57
2022/12/26 08:08:28;;;;;;;;;;;;;;;9.18;92.01;100596.50;4168492;28;20036;-62
2022/12/26 08:10:30;;;;;;;;;;;;;;;9.22;91.86;100596.16;4166242;28;20015;-58
2022/12/26 08:12:32;;;;;;;;;;;;;;;9.25;92.30;100595.78;4166953;28;20019;-57
2022/12/26 08:14:34;;;;;;;;;;;;;;;9.24;92.08;100602.22;4167487;28;20358;-57
2022/12/26 08:16:38;;;;;;;;;;;;;;;9.24;92.06;100592.25;4166973;28;20032;-54
2022/12/26 08:18:40;;;;;;;;;;;;;;;9.25;92.03;100591.25;4171429;28;20019;-55
2022/12/26 08:20:42;;;;;;;;;;;;;;;9.23;91.71;100592.44;4170745;28;20019;-61
2022/12/26 08:22:44;;;;;;;24.58;18.10;;;;;;;9.22;91.57;100590.78;4170284;28;24867;-58
2022/12/26 08:24:46;;;;;;;;;;;;;;;9.26;91.93;100595.63;4170963;28;20306;-56
2022/12/26 08:26:48;;;;;;;;;;;;;;;9.24;91.77;100586.03;4170866;28;20583;-56
2022/12/26 08:28:50;;;;;;;;;;;;;;;9.28;92.00;100590.06;4170766;28;20019;-59
2022/12/26 08:30:52;;;;;;;;;;;;;;;9.26;91.94;100587.53;4170603;28;20019;-59
2022/12/26 08:32:56;;;;;;;29.02;19.88;;;;;;;9.29;92.36;100584.50;4185796;28;21769;-59
2022/12/26 08:34:58;;;;;;;;;;;;;;;9.32;92.76;100586.84;4170619;28;20693;-59
2022/12/26 08:37:00;;;;;;;;;;;;;;;9.29;92.74;100573.72;4171169;28;20012;-58
2022/12/26 08:39:01;;;;;;;;;;;;;;;9.32;92.46;100588.72;4171829;28;20020;-57
2022/12/26 08:41:04;;;;;;;;;;;;;;;9.28;91.95;100584.66;4170351;28;20454;-57
2022/12/26 08:43:06;;;;;;;;;;;;;;;9.31;92.25;100581.63;4171127;28;20019;-59
2022/12/26 08:45:08;;;;;;;;;;;;;;;9.30;92.40;100594.28;4170262;28;20027;-60
2022/12/26 08:47:10;;;;;;;;;;;;;;;9.32;92.71;100591.41;4171098;28;20019;-58
2022/12/26 08:49:13;;;;;;;;;;;;;;;9.31;92.42;100582.50;4171124;28;20514;-58
2022/12/26 08:51:17;;;;;;;23.02;17.75;;;;;;;9.31;92.33;100573.53;4168864;28;24879;-58
2022/12/26 08:53:19;;;;;;;28.95;23.35;;;;;;;9.32;92.56;100588.72;4170547;28;20282;-57
2022/12/26 08:55:22;;;;;;;31.80;21.20;;;;;;;9.33;92.39;100585.84;4177763;28;20865;-58
2022/12/26 08:57:24;;;;;;;;;;;;;;;9.31;92.81;100587.88;4171003;28;20320;-59
2022/12/26 08:59:27;;;;;;;21.23;17.45;;;;;;;9.28;92.53;100581.97;4167658;28;24465;-58
2022/12/26 09:01:30;;;;;;;31.00;20.63;;;;;;;9.29;92.49;100595.28;4170141;28;20317;-60
2022/12/26 09:03:33;;;;;;;30.83;20.35;;;;;;;9.29;92.84;100595.28;4170511;28;20205;-60
2022/12/26 09:05:36;;;;;;;;;;;;;;;9.28;92.74;100601.69;4168787;28;20311;-59
2022/12/26 09:07:38;;;;;;;19.63;16.58;;;;;;;9.26;92.55;100605.56;4167980;28;24525;-57
2022/12/26 09:09:40;;;;;;;;;;;;;;;9.27;92.50;100616.19;4169177;28;21035;-60
2022/12/26 09:11:42;;;;;;;;;;;;;;;9.32;92.96;100607.59;4168827;28;20047;-60
2022/12/26 09:13:45;;;;;;;;;;;;;;;9.34;92.84;100614.50;4169658;28;20031;-59
2022/12/26 09:15:47;;;;;;;;;;;;;;;9.33;93.02;100612.78;4168764;28;20007;-60
2022/12/26 09:17:49;;;;;;;;;;;;;;;9.31;92.81;100617.53;4170308;28;20019;-58
2022/12/26 09:19:51;;;;;;;;;;;;;;;9.33;93.10;100622.75;4169480;28;20016;-59
2022/12/26 09:22:49;;;;;;;;;;;;;;;9.34;92.84;100635.19;4170164;28;20242;-58
2022/12/26 09:24:17;;;;;;;;;;;;;;;9.36;92.96;100625.09;4171425;28;20023;-60
2022/12/26 09:26:19;;;;;;;;;;;;;;;9.34;93.19;100627.97;4169887;28;20027;-59
2022/12/26 09:28:21;;;;;;;;;;;;;;;9.34;92.93;100624.41;4177907;28;20015;-59
2022/12/26 09:30:23;;;;;;;;;;;;;;;9.32;92.92;100621.88;4170008;28;20019;-58
2022/12/26 09:32:25;;;;;;;;;;;;;;;9.38;93.34;100626.59;4170545;28;20530;-55
2022/12/26 09:34:27;;;;;;;;;;;;;;;9.37;93.31;100624.94;4170835;28;20442;-60
2022/12/26 09:36:30;;;;;;;;;;;;;;;9.40;93.03;100625.59;4169935;28;19979;-57
2022/12/26 09:38:33;;;;;;;;;;;;;;;9.40;93.33;100639.06;4171693;28;20039;-61
2022/12/26 09:40:37;;;;;;;;;;;;;;;9.42;93.46;100637.91;4169705;28;20466;-59
2022/12/26 09:42:39;;;;;;;;;;;;;;;9.41;92.94;100635.38;4171101;28;20031;-57
2022/12/26 09:44:43;;;;;;;;;;;;;;;9.44;93.14;100640.41;4168617;28;20019;-58
2022/12/26 09:46:48;;;;;;;;;;;;;;;9.45;93.17;100637.56;4169204;28;20016;-59
2022/12/26 09:48:51;;;;;;;;;;;;;;;9.47;93.26;100630.13;4187057;28;20011;-58
2022/12/26 09:50:53;;;;;;;;;;;;;;;9.48;93.36;100631.81;4169004;28;21253;-54
2022/12/26 09:52:56;;;;;;;;;;;;;;;9.49;93.46;100621.84;4171527;28;20020;-56
2022/12/26 09:55:00;;;;;;;;;;;;;;;9.48;93.63;100637.22;4170427;28;20487;-60
2022/12/26 09:57:03;;;;;;;;;;;;;;;9.47;93.34;100619.34;4171055;28;20434;-60
2022/12/26 09:59:06;;;;;;;;;;;;;;;9.46;93.36;100623.03;4172790;28;20015;-61
2022/12/26 10:01:09;;;;;;;;;;;;;;;9.46;93.17;100616.81;4169591;28;20447;-61
2022/12/26 10:03:11;;;;;;;;;;;;;;;9.49;93.58;100616.47;4170761;28;19971;-61
2022/12/26 10:05:13;;;;;;;;;;;;;;;9.50;93.11;100629.78;4176130;28;20446;-59
2022/12/26 10:07:17;;;;;;;;;;;;;;;9.52;93.41;100640.38;4170504;28;20011;-59
2022/12/26 10:09:23;;;;;;;;;;;;;;;9.54;93.40;100646.44;4168050;28;20011;-59
2022/12/26 10:11:30;;;;;;;;;;;;;;;9.54;93.33;100644.59;4169248;28;19999;-60
2022/12/26 10:13:34;;;;;;;;;;;;;;;9.50;92.96;100645.13;4167293;28;19928;-59
2022/12/26 10:15:38;;;;;;;;;;;;;;;9.52;92.87;100649.31;4168884;28;19956;-61
2022/12/26 10:17:42;;;;;;;;;;;;;;;9.54;92.92;100655.38;4188264;28;19986;-60
2022/12/26 10:19:51;;;;;;;;;;;;;;;9.56;93.23;100660.56;4169910;28;20300;-58
2022/12/26 10:21:54;;;;;;;;;;;;;;;9.54;93.01;100660.78;4171951;28;20019;-59
2022/12/26 10:23:56;;;;;;;;;;;;;;;9.55;92.76;100656.22;4170680;28;20361;-60
2022/12/26 10:26:05;;;;;;;18.42;16.33;;;;;;;9.54;93.10;100660.78;4167522;28;24540;-59
2022/12/26 10:28:10;;;;;;;;;;;;;;;9.54;92.81;100651.84;4171179;28;20199;-60
2022/12/26 10:30:14;;;;;;;;;;;;;;;9.56;93.13;100653.34;4167916;28;20043;-59
2022/12/26 10:32:18;;;;;;;;;;;;;;;9.58;92.75;100658.56;4170418;28;20038;-60
2022/12/26 10:34:22;;;;;;;;;;;;;;;9.56;92.74;100661.44;4168901;28;20019;-59
2022/12/26 10:36:29;;;;;;;;;;;;;;;9.57;92.43;100652.31;4167837;28;20023;-59
2022/12/26 10:38:33;;;;;;;;;;;;;;;9.55;92.72;100659.75;4169494;28;19979;-58
2022/12/26 10:40:37;;;;;;;;;;;;;;;9.58;92.47;100650.47;4168497;28;20020;-60
2022/12/26 10:42:39;;;;;;;;;;;;;;;9.60;92.72;100661.94;4178217;28;20011;-60
2022/12/26 10:44:42;;;;;;;;;;;;;;;9.60;92.65;100659.22;4167943;28;20024;-59
2022/12/26 10:46:53;;;;;;;;;;;;;;;9.63;92.50;100658.06;4170600;28;20040;-60
2022/12/26 10:48:55;;;;;;;;;;;;;;;9.64;92.84;100663.28;4170756;28;20027;-61
2022/12/26 10:50:57;;;;;;;;;;;;;;;9.65;92.80;100645.22;4170837;28;20020;-62
2022/12/26 10:52:59;;;;;;;;;;;;;;;9.64;92.63;100646.22;4170758;28;20019;-62
2022/12/26 10:55:01;;;;;;;;;;;;;;;9.64;92.49;100644.41;4168423;28;20011;-60
2022/12/26 10:57:03;;;;;;;;;;;;;;;9.63;92.30;100655.38;4170394;28;20474;-60
2022/12/26 10:59:08;;;;;;;;;;;;;;;9.64;92.39;100657.03;4168734;28;19960;-60
2022/12/26 11:01:29;;;;;;;;;;;;;;;9.62;92.10;100646.41;4167221;28;20012;-60
2022/12/26 11:03:32;;;;;;;;;;;;;;;9.60;92.19;100634.13;4168375;28;20027;-61
2022/12/26 11:05:35;;;;;;;;;;;;;;;9.61;91.97;100639.34;4167216;28;20470;-60
2022/12/26 11:07:37;;;;;;;;;;;;;;;9.62;92.32;100656.38;4169132;28;20024;-60
2022/12/26 11:09:40;;;;;;;;;;;;;;;9.62;92.29;100648.28;4168152;28;20008;-63
2022/12/26 11:11:48;;;;;;;;;;;;;;;9.60;92.02;100647.63;4168393;28;20020;-61
2022/12/26 11:13:51;;;;;;;;;;;;;;;9.62;92.46;100657.19;4168959;28;20008;-60
2022/12/26 11:15:53;;;;;;;;;;;;;;;9.61;92.18;100652.84;4168989;28;20339;-60
2022/12/26 11:17:55;;;;;;;;;;;;;;;9.59;92.20;100649.44;4170641;28;20015;-60
2022/12/26 11:20:16;;;;;;;;;;;;;;;9.60;92.35;100656.53;4168522;28;19925;-60
2022/12/26 11:22:25;;;;;;;;;;;;;;;9.59;92.29;100645.94;4170106;28;20007;-60
2022/12/26 11:24:27;;;;;;;;;;;;;;;9.55;91.92;100654.34;4168968;28;20470;-59
2022/12/26 11:26:29;;;;;;;;;;;;;;;9.55;92.34;100654.34;4169126;28;20003;-60
2022/12/26 11:28:32;;;;;;;;;;;;;;;9.57;92.44;100646.09;4169387;28;20442;-61
2022/12/26 11:30:34;;;;;;;;;;;;;;;9.53;92.04;100640.22;4167621;28;20016;-62
2022/12/26 11:32:36;;;;;;;;;;;;;;;9.55;92.04;100640.03;4169043;28;20008;-61
2022/12/26 11:34:44;;;;;;;;;;;;;;;9.55;92.17;100637.34;4167449;28;20352;-62
2022/12/26 11:36:48;;;;;;;;;;;;;;;9.53;92.28;100629.44;4168787;28;20024;-60
2022/12/26 11:38:52;;;;;;;;;;;;;;;9.51;92.45;100619.81;4169295;28;20032;-60
2022/12/26 11:43:14;;;;;;;;;;;;;;;9.49;92.63;100625.38;4169637;28;20005;-60
2022/12/26 11:45:20;;;;;;;;;;;;;;;9.50;92.67;100629.78;4167998;28;20479;-60
2022/12/26 11:47:22;;;;;;;;;;;;;;;9.49;92.33;100630.78;4168315;28;20016;-60
2022/12/26 11:49:26;;;;;;;;;;;;;;;9.49;92.48;100636.16;4167447;28;20404;-61
2022/12/26 11:51:35;;;;;;;;;;;;;;;9.50;92.58;100639.72;4168050;28;20361;-61
2022/12/26 11:53:38;;;;;;;;;;;;;;;9.50;92.70;100635.16;4171549;28;20463;-62
2022/12/26 11:55:40;;;;;;;;;;;;;;;9.50;92.58;100637.88;4170101;28;20019;-60
2022/12/26 11:57:42;;;;;;;;;;;;;;;9.51;92.41;100644.09;4171205;28;20023;-60
2022/12/26 11:59:44;;;;;;;;;;;;;;;9.52;92.61;100648.47;4170619;28;20019;-61
2022/12/26 12:01:46;;;;;;;;;;;;;;;9.55;92.69;100654.34;4172619;28;20019;-61
2022/12/26 12:03:48;;;;;;;;;;;;;;;9.55;92.85;100662.44;4173453;28;20012;-60
2022/12/26 12:05:51;;;;;;;;;;;;;;;9.58;92.89;100666.66;4172001;28;20003;-58
2022/12/26 12:08:00;;;;;;;;;;;;;;;9.56;92.83;100661.44;4170916;28;20063;-59
2022/12/26 12:10:06;;;;;;;;;;;;;;;9.56;92.90;100660.56;4170907;28;20013;-60
2022/12/26 12:12:10;;;;;;;;;;;;;;;9.56;92.48;100655.19;4171021;28;20015;-60
2022/12/26 12:14:19;;;;;;;;;;;;;;;9.57;92.77;100652.31;4172809;28;20007;-61
2022/12/26 12:16:26;;;;;;;;;;;;;;;9.58;92.88;100647.78;4172737;28;21582;-59
2022/12/26 12:18:31;;;;;;;;;;;;;;;9.57;92.66;100656.88;4172371;28;20004;-58
2022/12/26 12:20:36;;;;;;;;;;;;;;;9.56;92.94;100655.19;4172049;28;20007;-59
2022/12/26 12:22:54;;;;;;;;;;;;;;;9.60;92.88;100658.41;4171650;28;20015;-60
2022/12/26 12:25:00;;;;;;;;;;;;;;;9.61;93.18;100644.75;4170147;28;20023;-62
2022/12/26 12:27:05;;;;;;;;;;;;;;;9.59;93.20;100633.28;4169162;28;20019;-58
2022/12/26 12:29:10;;;;;;;;;;;;;;;9.61;93.21;100638.50;4172127;28;20015;-62
2022/12/26 12:31:14;;;;;;;;;;;;;;;9.61;93.13;100639.34;4169787;28;20542;-61
2022/12/26 12:33:23;;;;;;;;;;;;;;;9.60;93.17;100632.28;4173239;28;20011;-58
2022/12/26 12:35:32;;;;;;;;;;;;;;;9.59;92.95;100632.44;4171086;28;20023;-60